createdAt,value
2018-03-14T00:02:16.218Z,3.90
2018-03-14T00:04:43.872Z,4.00
2018-03-14T00:07:11.547Z,3.80
2018-03-14T00:09:39.087Z,3.80
2018-03-14T00:12:06.625Z,3.80
2018-03-14T00:14:34.320Z,3.60
2018-03-14T00:17:01.949Z,3.60
2018-03-14T00:19:29.481Z,3.50
2018-03-14T00:21:57.034Z,3.50
2018-03-14T00:24:24.990Z,3.40
2018-03-14T00:26:52.525Z,3.40
2018-03-14T00:29:20.130Z,3.60
2018-03-14T00:31:47.660Z,3.80
2018-03-14T00:34:15.430Z,4.00
2018-03-14T00:36:43.367Z,3.80
2018-03-14T00:39:10.905Z,3.70
2018-03-14T00:41:38.564Z,3.70
2018-03-14T00:44:06.148Z,3.70
2018-03-14T00:46:33.719Z,3.50
2018-03-14T00:49:01.330Z,3.30
2018-03-14T00:51:28.915Z,3.30
2018-03-14T00:53:56.455Z,3.20
2018-03-14T00:56:23.999Z,2.90
2018-03-14T00:58:52.432Z,3.00
2018-03-14T01:01:20.037Z,3.00
2018-03-14T01:03:47.578Z,3.00
2018-03-14T01:06:15.418Z,3.00
2018-03-14T01:08:42.949Z,3.10
2018-03-14T01:11:10.481Z,3.20
2018-03-14T01:13:38.063Z,3.30
2018-03-14T01:16:05.595Z,3.20
2018-03-14T01:18:33.134Z,3.30
2018-03-14T01:21:00.706Z,3.40
2018-03-14T01:23:28.249Z,3.40
2018-03-14T01:25:55.889Z,3.40
2018-03-14T01:28:23.464Z,3.30
2018-03-14T01:30:50.994Z,3.40
2018-03-14T01:33:18.534Z,3.40
2018-03-14T01:35:46.117Z,3.30
2018-03-14T01:38:13.727Z,3.40
2018-03-14T01:40:41.328Z,3.50
2018-03-14T01:43:08.906Z,3.40
2018-03-14T01:45:36.440Z,3.40
2018-03-14T01:48:03.966Z,3.40
2018-03-14T01:50:31.537Z,3.30
2018-03-14T01:53:10.954Z,3.30
2018-03-14T01:55:38.581Z,3.30
2018-03-14T01:58:06.277Z,3.30
2018-03-14T02:00:33.830Z,3.30
2018-03-14T02:03:02.246Z,3.20
2018-03-14T02:05:29.774Z,3.20
2018-03-14T02:07:58.390Z,3.10
2018-03-14T02:10:25.973Z,3.10
2018-03-14T02:12:53.518Z,3.10
2018-03-14T02:15:21.242Z,3.10
2018-03-14T02:17:48.833Z,3.10
2018-03-14T02:20:16.710Z,3.10
2018-03-14T02:22:44.393Z,3.10
2018-03-14T02:25:12.233Z,3.10
2018-03-14T02:27:39.776Z,3.20
2018-03-14T02:30:07.326Z,3.20
2018-03-14T02:32:34.898Z,3.20
2018-03-14T02:35:02.478Z,3.20
2018-03-14T02:37:30.129Z,3.20
2018-03-14T02:39:57.689Z,3.20
2018-03-14T02:42:25.231Z,3.20
2018-03-14T02:44:52.796Z,3.10
2018-03-14T02:47:20.566Z,3.20
2018-03-14T02:49:48.119Z,3.10
2018-03-14T02:52:15.642Z,3.10
2018-03-14T02:54:43.325Z,3.20
2018-03-14T02:57:11.632Z,3.20
2018-03-14T02:59:39.293Z,3.20
2018-03-14T03:02:06.843Z,3.20
2018-03-14T03:04:34.356Z,3.30
2018-03-14T03:07:01.880Z,3.30
2018-03-14T03:09:29.507Z,3.40
2018-03-14T03:11:57.017Z,3.40
2018-03-14T03:14:24.533Z,3.30
2018-03-14T03:16:52.341Z,3.40
2018-03-14T03:19:19.861Z,3.40
2018-03-14T03:21:47.369Z,3.30
2018-03-14T03:24:14.917Z,3.40
2018-03-14T03:26:42.601Z,3.40
2018-03-14T03:29:10.250Z,3.40
2018-03-14T03:31:38.558Z,3.40
2018-03-14T03:34:06.082Z,3.40
2018-03-14T03:36:33.728Z,3.40
2018-03-14T03:39:02.243Z,3.40
2018-03-14T03:41:29.922Z,3.40
2018-03-14T03:43:57.445Z,3.30
2018-03-14T03:46:25.786Z,3.20
2018-03-14T03:48:54.166Z,3.20
2018-03-14T03:51:21.690Z,3.10
2018-03-14T03:53:49.234Z,3.10
2018-03-14T03:56:16.755Z,3.10
2018-03-14T03:58:44.270Z,3.00
2018-03-14T04:01:11.897Z,2.90
2018-03-14T04:03:40.179Z,2.70
2018-03-14T04:06:07.706Z,2.60
2018-03-14T04:08:35.248Z,2.70
2018-03-14T04:11:03.040Z,2.80
2018-03-14T04:13:30.554Z,2.80
2018-03-14T04:15:58.143Z,2.90
2018-03-14T04:18:25.652Z,2.80
2018-03-14T04:20:53.540Z,2.70
2018-03-14T04:23:21.165Z,2.70
2018-03-14T04:25:49.626Z,2.80
2018-03-14T04:28:17.285Z,2.80
2018-03-14T04:30:44.855Z,2.90
2018-03-14T04:33:12.366Z,2.80
2018-03-14T04:35:40.881Z,2.80
2018-03-14T04:38:08.430Z,2.70
2018-03-14T04:40:36.814Z,2.60
2018-03-14T04:43:04.717Z,2.60
2018-03-14T04:45:32.297Z,2.70
2018-03-14T04:47:59.811Z,2.80
2018-03-14T04:50:27.331Z,2.70
2018-03-14T04:52:54.877Z,2.80
2018-03-14T04:55:22.400Z,2.80
2018-03-14T04:57:50.074Z,2.90
2018-03-14T05:00:17.624Z,2.90
2018-03-14T05:02:45.147Z,3.00
2018-03-14T05:05:12.658Z,3.00
2018-03-14T05:07:40.213Z,2.90
2018-03-14T05:10:07.731Z,3.00
2018-03-14T05:12:35.377Z,3.00
2018-03-14T05:15:02.923Z,3.10
2018-03-14T05:17:30.608Z,3.20
2018-03-14T05:19:58.345Z,3.30
2018-03-14T05:22:26.164Z,3.40
2018-03-14T05:24:53.676Z,3.60
2018-03-14T05:27:21.199Z,3.70
2018-03-14T05:29:48.884Z,3.70
2018-03-14T05:32:16.572Z,3.80
2018-03-14T05:34:44.982Z,3.60
2018-03-14T05:37:12.537Z,3.60
2018-03-14T05:39:40.105Z,3.50
2018-03-14T05:42:07.632Z,3.50
2018-03-14T05:44:35.195Z,3.50
2018-03-14T05:47:02.877Z,3.60
2018-03-14T05:49:30.395Z,3.60
2018-03-14T05:51:58.808Z,3.70
2018-03-14T05:54:26.673Z,3.60
2018-03-14T05:56:54.199Z,3.70
2018-03-14T05:59:23.022Z,3.80
2018-03-14T06:01:50.837Z,3.80
2018-03-14T06:04:18.357Z,3.90
2018-03-14T06:06:45.981Z,3.90
2018-03-14T06:09:14.001Z,3.90
2018-03-14T06:11:41.746Z,3.80
2018-03-14T06:14:09.471Z,3.80
2018-03-14T06:16:37.237Z,3.90
2018-03-14T06:19:04.874Z,3.90
2018-03-14T06:21:32.537Z,4.00
2018-03-14T06:24:00.063Z,4.00
2018-03-14T06:26:27.578Z,4.10
2018-03-14T06:28:55.189Z,4.10
2018-03-14T06:31:22.763Z,4.20
2018-03-14T06:33:50.484Z,4.30
2018-03-14T06:36:18.342Z,4.40
2018-03-14T06:38:46.415Z,4.50
2018-03-14T06:41:13.940Z,4.50
2018-03-14T06:43:42.266Z,4.50
2018-03-14T06:46:09.828Z,4.50
2018-03-14T06:48:37.683Z,4.60
2018-03-14T06:51:05.241Z,4.70
2018-03-14T06:53:33.195Z,4.70
2018-03-14T06:56:01.040Z,4.80
2018-03-14T06:58:40.382Z,4.90
2018-03-14T07:01:19.643Z,5.00
2018-03-14T07:06:48.705Z,5.00
2018-03-14T07:09:17.329Z,5.10
2018-03-14T07:11:44.982Z,5.10
2018-03-14T07:14:12.642Z,5.10
2018-03-14T07:16:40.227Z,5.20
2018-03-14T07:19:07.773Z,5.20
2018-03-14T07:21:35.328Z,5.20
2018-03-14T07:24:03.099Z,5.40
2018-03-14T07:26:30.629Z,5.40
2018-03-14T07:28:58.398Z,5.40
2018-03-14T07:31:26.064Z,5.40
2018-03-14T07:33:53.629Z,5.60
2018-03-14T07:36:21.207Z,5.60
2018-03-14T07:38:48.957Z,5.80
2018-03-14T07:41:16.721Z,5.80
2018-03-14T07:43:44.278Z,5.90
2018-03-14T07:46:11.983Z,5.80
2018-03-14T07:48:39.557Z,5.90
2018-03-14T07:51:07.572Z,6.00
2018-03-14T07:53:35.434Z,6.20
2018-03-14T07:56:02.998Z,6.30
2018-03-14T07:58:30.785Z,6.40
2018-03-14T08:00:58.621Z,6.40
2018-03-14T08:03:26.145Z,6.40
2018-03-14T08:05:53.670Z,6.50
2018-03-14T08:08:21.281Z,6.50
2018-03-14T08:10:49.050Z,6.60
2018-03-14T08:13:16.583Z,6.70
2018-03-14T08:15:44.391Z,6.80
2018-03-14T08:18:12.156Z,6.80
2018-03-14T08:20:39.669Z,6.90
2018-03-14T08:23:07.385Z,7.10
2018-03-14T08:25:35.102Z,7.20
2018-03-14T08:28:03.084Z,7.30
2018-03-14T08:30:30.650Z,7.50
2018-03-14T08:32:58.208Z,7.50
2018-03-14T08:35:26.761Z,7.60
2018-03-14T08:37:54.642Z,7.60
2018-03-14T08:40:22.298Z,7.70
2018-03-14T08:42:50.021Z,7.80
2018-03-14T08:45:18.540Z,7.90
2018-03-14T08:47:46.177Z,7.90
2018-03-14T08:50:13.779Z,7.90
2018-03-14T08:52:41.541Z,7.80
2018-03-14T08:55:09.058Z,7.70
2018-03-14T08:57:37.354Z,7.50
2018-03-14T09:00:04.913Z,7.50
2018-03-14T09:02:32.427Z,7.50
2018-03-14T09:05:00.302Z,7.40
2018-03-14T09:07:28.630Z,7.40
2018-03-14T09:09:56.168Z,7.40
2018-03-14T09:12:23.843Z,7.50
2018-03-14T09:14:51.454Z,7.40
2018-03-14T09:17:19.735Z,7.40
2018-03-14T09:19:47.259Z,7.40
2018-03-14T09:22:14.803Z,7.40
2018-03-14T09:24:42.337Z,7.50
2018-03-14T09:27:09.966Z,7.50
2018-03-14T09:29:37.568Z,7.60
2018-03-14T09:32:05.349Z,7.40
2018-03-14T09:34:33.015Z,7.40
2018-03-14T09:37:00.854Z,7.20
2018-03-14T09:39:28.402Z,7.20
2018-03-14T09:41:55.985Z,7.30
2018-03-14T09:44:23.858Z,7.50
2018-03-14T09:46:51.422Z,7.50
2018-03-14T09:49:19.173Z,7.50
2018-03-14T09:51:47.063Z,7.80
2018-03-14T09:54:14.913Z,7.90
2018-03-14T09:56:42.549Z,7.90
2018-03-14T09:59:10.296Z,7.80
2018-03-14T10:01:37.910Z,7.70
2018-03-14T10:04:05.539Z,7.90
2018-03-14T10:06:33.122Z,7.80
2018-03-14T10:09:00.672Z,7.90
2018-03-14T10:11:28.224Z,8.00
2018-03-14T10:13:55.817Z,7.80
2018-03-14T10:16:24.139Z,7.80
2018-03-14T10:18:51.883Z,7.80
2018-03-14T10:21:19.587Z,7.80
2018-03-14T10:23:47.173Z,7.80
2018-03-14T10:26:15.714Z,7.70
2018-03-14T10:28:43.499Z,7.70
2018-03-14T10:31:11.087Z,7.80
2018-03-14T10:33:39.527Z,7.70
2018-03-14T10:36:07.283Z,7.70
2018-03-14T10:38:35.080Z,7.60
2018-03-14T10:41:03.190Z,7.50
2018-03-14T10:43:31.631Z,7.50
2018-03-14T10:45:59.192Z,7.50
2018-03-14T10:48:26.934Z,7.50
2018-03-14T10:50:54.614Z,7.50
2018-03-14T10:53:22.248Z,7.60
2018-03-14T10:55:49.815Z,7.60
2018-03-14T10:58:17.630Z,7.70
2018-03-14T11:00:50.720Z,7.70
2018-03-14T11:03:18.783Z,7.50
2018-03-14T11:05:46.652Z,7.40
2018-03-14T11:08:14.207Z,7.10
2018-03-14T11:10:42.558Z,6.90
2018-03-14T11:13:10.119Z,6.90
2018-03-14T11:15:37.784Z,6.90
2018-03-14T11:18:06.145Z,6.90
2018-03-14T11:20:34.026Z,6.90
2018-03-14T11:23:01.849Z,6.80
2018-03-14T11:25:29.552Z,6.90
2018-03-14T11:27:57.107Z,6.80
2018-03-14T11:30:25.015Z,6.70
2018-03-14T11:32:52.745Z,6.60
2018-03-14T11:35:20.308Z,6.70
2018-03-14T11:37:47.874Z,6.70
2018-03-14T11:40:23.197Z,6.70
2018-03-14T11:42:50.745Z,6.70
2018-03-14T11:45:18.299Z,6.60
2018-03-14T11:47:46.319Z,6.50
2018-03-14T11:50:14.211Z,6.50
2018-03-14T11:52:41.893Z,6.50
2018-03-14T11:55:10.049Z,6.50
2018-03-14T11:57:37.613Z,6.50
2018-03-14T12:00:05.465Z,6.40
2018-03-14T12:02:33.289Z,6.30
2018-03-14T12:05:01.702Z,6.40
2018-03-14T12:07:29.396Z,6.40
2018-03-14T12:09:56.985Z,6.20
2018-03-14T12:12:24.564Z,6.10
2018-03-14T12:14:52.155Z,5.90
2018-03-14T12:17:20.035Z,5.90
2018-03-14T12:19:47.618Z,6.00
2018-03-14T12:22:20.919Z,6.00
2018-03-14T12:24:49.252Z,6.00
2018-03-14T12:27:17.215Z,6.00
2018-03-14T12:29:44.796Z,5.80
2018-03-14T12:32:12.358Z,5.90
2018-03-14T12:34:40.063Z,6.00
2018-03-14T12:37:07.731Z,6.00
2018-03-14T12:39:35.414Z,5.90
2018-03-14T12:42:02.963Z,6.00
2018-03-14T12:44:30.924Z,5.90
2018-03-14T12:46:58.743Z,5.90
2018-03-14T12:49:26.458Z,5.90
2018-03-14T12:51:54.044Z,5.90
2018-03-14T12:54:22.131Z,5.90
2018-03-14T12:56:49.688Z,6.00
2018-03-14T12:59:18.286Z,6.00
2018-03-14T13:01:45.946Z,6.00
2018-03-14T13:04:13.552Z,5.90
2018-03-14T13:06:41.298Z,5.80
2018-03-14T13:09:09.332Z,5.90
2018-03-14T13:11:37.034Z,5.70
2018-03-14T13:14:05.104Z,5.70
2018-03-14T13:16:32.706Z,5.60
2018-03-14T13:19:00.262Z,5.50
2018-03-14T13:21:28.076Z,5.60
2018-03-14T13:23:55.838Z,5.60
2018-03-14T13:26:23.487Z,5.60
2018-03-14T13:28:51.435Z,5.60
2018-03-14T13:31:18.998Z,5.70
2018-03-14T13:33:46.567Z,5.50
2018-03-14T13:36:14.928Z,5.50
2018-03-14T13:38:42.705Z,5.50
2018-03-14T13:41:11.140Z,5.60
2018-03-14T13:43:38.942Z,5.50
2018-03-14T13:46:06.751Z,5.70
2018-03-14T13:48:34.313Z,5.70
2018-03-14T13:51:01.920Z,5.60
2018-03-14T13:53:29.527Z,5.60
2018-03-14T13:55:57.203Z,5.70
2018-03-14T13:58:24.880Z,5.70
2018-03-14T14:00:52.520Z,5.70
2018-03-14T14:03:20.290Z,5.70
2018-03-14T14:05:48.283Z,5.70
2018-03-14T14:08:15.850Z,5.70
2018-03-14T14:10:43.395Z,5.60
2018-03-14T14:13:11.202Z,5.60
2018-03-14T14:15:39.896Z,5.50
2018-03-14T14:18:07.566Z,5.50
2018-03-14T14:20:35.519Z,5.60
2018-03-14T14:23:03.226Z,5.60
2018-03-14T14:25:31.282Z,5.70
2018-03-14T14:27:59.227Z,5.60
2018-03-14T14:30:26.817Z,5.50
2018-03-14T14:32:54.387Z,5.50
2018-03-14T14:35:22.745Z,5.30
2018-03-14T14:37:50.576Z,5.20
2018-03-14T14:40:18.764Z,5.00
2018-03-14T14:42:46.472Z,4.90
2018-03-14T14:45:14.026Z,4.90
2018-03-14T14:47:41.585Z,4.90
2018-03-14T14:50:09.204Z,4.90
2018-03-14T14:52:36.756Z,4.80
2018-03-14T14:55:04.512Z,4.80
2018-03-14T14:57:32.173Z,4.90
2018-03-14T14:59:59.733Z,4.80
2018-03-14T15:02:27.291Z,4.80
2018-03-14T15:04:55.024Z,4.80
2018-03-14T15:07:22.790Z,4.80
2018-03-14T15:09:51.128Z,4.80
2018-03-14T15:12:18.719Z,4.80
2018-03-14T15:14:46.400Z,4.80
2018-03-14T15:17:14.745Z,4.80
2018-03-14T15:19:43.366Z,4.80
2018-03-14T15:22:10.941Z,4.80
2018-03-14T15:24:38.621Z,4.90
2018-03-14T15:27:06.327Z,4.90
2018-03-14T15:29:33.953Z,4.90
2018-03-14T15:32:01.558Z,4.90
2018-03-14T15:34:29.447Z,4.90
2018-03-14T15:36:57.017Z,4.90
2018-03-14T15:39:24.821Z,4.90
2018-03-14T15:41:52.422Z,4.90
2018-03-14T15:44:20.362Z,4.90
2018-03-14T15:46:48.424Z,4.80
2018-03-14T15:49:16.010Z,4.90
2018-03-14T15:51:43.804Z,4.90
2018-03-14T15:54:12.054Z,4.80
2018-03-14T15:56:39.666Z,4.80
2018-03-14T15:59:08.421Z,4.80
2018-03-14T16:01:36.109Z,4.80
2018-03-14T16:04:04.018Z,4.70
2018-03-14T16:06:31.764Z,4.70
2018-03-14T16:08:59.847Z,4.80
2018-03-14T16:11:27.515Z,4.70
2018-03-14T16:13:55.527Z,4.70
2018-03-14T16:16:23.323Z,4.60
2018-03-14T16:18:51.252Z,4.60
2018-03-14T16:21:19.053Z,4.50
2018-03-14T16:23:47.430Z,4.50
2018-03-14T16:26:16.036Z,4.50
2018-03-14T16:28:43.626Z,4.50
2018-03-14T16:31:11.401Z,4.50
2018-03-14T16:33:39.139Z,4.50
2018-03-14T16:36:07.009Z,4.50
2018-03-14T16:38:34.819Z,4.40
2018-03-14T16:41:02.862Z,4.30
2018-03-14T16:43:30.733Z,4.30
2018-03-14T16:45:58.797Z,4.30
2018-03-14T16:48:27.072Z,4.30
2018-03-14T16:50:54.772Z,4.40
2018-03-14T16:53:22.803Z,4.30
2018-03-14T16:55:50.668Z,4.40
2018-03-14T16:58:18.284Z,4.30
2018-03-14T17:00:46.194Z,4.30
2018-03-14T17:03:14.682Z,4.30
2018-03-14T17:05:42.663Z,4.20
2018-03-14T17:08:10.836Z,4.20
2018-03-14T17:10:38.654Z,4.20
2018-03-14T17:13:06.243Z,4.20
2018-03-14T17:15:34.242Z,4.20
2018-03-14T17:18:02.277Z,4.10
2018-03-14T17:20:30.222Z,4.10
2018-03-14T17:22:57.803Z,4.10
2018-03-14T17:25:25.880Z,4.10
2018-03-14T17:27:53.722Z,4.20
2018-03-14T17:30:21.604Z,4.20
2018-03-14T17:32:49.288Z,4.20
2018-03-14T17:35:17.385Z,4.10
2018-03-14T17:37:46.226Z,4.10
2018-03-14T17:40:14.294Z,4.10
2018-03-14T17:42:42.163Z,4.10
2018-03-14T17:45:09.780Z,4.10
2018-03-14T17:47:37.750Z,4.10
2018-03-14T17:50:05.827Z,4.00
2018-03-14T17:52:34.033Z,4.10
2018-03-14T17:55:02.448Z,4.10
2018-03-14T17:57:30.376Z,4.10
2018-03-14T17:59:57.974Z,4.10
2018-03-14T18:02:25.800Z,4.10
2018-03-14T18:04:53.965Z,4.10
2018-03-14T18:07:21.912Z,4.10
2018-03-14T18:09:49.795Z,4.00
2018-03-14T18:12:17.574Z,4.00
2018-03-14T18:14:47.074Z,4.10
2018-03-14T18:17:15.066Z,4.00
2018-03-14T18:19:43.426Z,4.10
2018-03-14T18:22:11.699Z,4.10
2018-03-14T18:24:39.774Z,4.00
2018-03-14T18:27:08.247Z,4.00
2018-03-14T18:29:36.520Z,4.00
2018-03-14T18:32:05.003Z,3.90
2018-03-14T18:34:33.288Z,3.80
2018-03-14T18:37:01.006Z,3.90
2018-03-14T18:39:29.364Z,4.00
2018-03-14T18:41:57.293Z,4.00
2018-03-14T18:44:25.254Z,4.00
2018-03-14T18:46:53.290Z,4.10
2018-03-14T18:49:20.974Z,3.90
2018-03-14T18:51:49.151Z,3.90
2018-03-14T18:54:17.226Z,3.90
2018-03-14T18:56:45.501Z,3.80
2018-03-14T18:59:13.504Z,3.90
2018-03-14T19:01:41.879Z,3.80
2018-03-14T19:04:10.284Z,3.80
2018-03-14T19:06:38.349Z,3.90
2018-03-14T19:09:06.465Z,3.80
2018-03-14T19:11:35.764Z,3.80
2018-03-14T19:14:03.776Z,3.80
2018-03-14T19:16:31.520Z,3.80
2018-03-14T19:18:59.366Z,3.90
2018-03-14T19:21:27.840Z,3.90
2018-03-14T19:23:56.115Z,3.90
2018-03-14T19:26:24.158Z,3.90
2018-03-14T19:28:52.259Z,3.90
2018-03-14T19:31:20.132Z,3.80
2018-03-14T19:33:47.884Z,3.80
2018-03-14T19:36:15.870Z,3.80
2018-03-14T19:38:44.072Z,3.70
2018-03-14T19:41:12.219Z,3.60
2018-03-14T19:43:41.505Z,3.60
2018-03-14T19:46:11.048Z,3.60
2018-03-14T19:48:38.740Z,3.70
2018-03-14T19:51:06.324Z,3.60
2018-03-14T19:53:34.108Z,3.50
2018-03-14T19:56:01.953Z,3.50
2018-03-14T19:58:30.083Z,3.50
2018-03-14T20:00:57.915Z,3.50
2018-03-14T20:03:25.967Z,3.50
2018-03-14T20:05:55.570Z,3.60
2018-03-14T20:08:23.663Z,3.60
2018-03-14T20:10:51.298Z,3.60
2018-03-14T20:13:19.160Z,3.50
2018-03-14T20:15:47.500Z,3.50
2018-03-14T20:18:15.125Z,3.50
2018-03-14T20:20:42.971Z,3.50
2018-03-14T20:23:11.205Z,3.60
2018-03-14T20:25:39.428Z,3.60
2018-03-14T20:28:07.592Z,3.50
2018-03-14T20:30:35.658Z,3.50
2018-03-14T20:33:03.933Z,3.60
2018-03-14T20:35:32.209Z,3.60
2018-03-14T20:38:00.277Z,3.60
2018-03-14T20:40:28.080Z,3.50
2018-03-14T20:42:56.125Z,3.40
2018-03-14T20:45:24.525Z,3.50
2018-03-14T20:47:52.727Z,3.60
2018-03-14T20:50:21.101Z,3.50
2018-03-14T20:52:49.109Z,3.50
2018-03-14T20:55:16.974Z,3.40
2018-03-14T20:57:44.565Z,3.40
2018-03-14T21:00:12.387Z,3.40
2018-03-14T21:02:40.006Z,3.40
2018-03-14T21:05:07.630Z,3.50
2018-03-14T21:07:35.292Z,3.60
2018-03-14T21:10:03.144Z,3.50
2018-03-14T21:12:30.700Z,3.50
2018-03-14T21:14:58.360Z,3.40
2018-03-14T21:17:25.932Z,3.50
2018-03-14T21:19:53.512Z,3.60
2018-03-14T21:22:21.128Z,3.50
2018-03-14T21:24:48.902Z,3.50
2018-03-14T21:27:16.839Z,3.50
2018-03-14T21:29:45.287Z,3.40
2018-03-14T21:32:12.908Z,3.40
2018-03-14T21:34:40.489Z,3.40
2018-03-14T21:37:08.105Z,3.40
2018-03-14T21:39:36.068Z,3.50
2018-03-14T21:42:03.623Z,3.50
2018-03-14T21:44:32.271Z,3.40
2018-03-14T21:46:59.859Z,3.40
2018-03-14T21:49:27.643Z,3.30
2018-03-14T21:51:56.267Z,3.40
2018-03-14T21:54:23.856Z,3.40
2018-03-14T21:56:51.423Z,3.40
2018-03-14T21:59:19.916Z,3.50
2018-03-14T22:01:47.478Z,3.40
2018-03-14T22:04:15.041Z,3.50
2018-03-14T22:06:43.063Z,3.50
2018-03-14T22:09:10.911Z,3.50
2018-03-14T22:11:39.431Z,3.60
2018-03-14T22:14:07.828Z,3.60
2018-03-14T22:16:35.563Z,3.60
2018-03-14T22:19:03.106Z,3.60
2018-03-14T22:21:30.699Z,3.50
2018-03-14T22:23:59.094Z,3.30
2018-03-14T22:26:27.019Z,3.30
2018-03-14T22:28:54.842Z,3.30
2018-03-14T22:31:22.547Z,3.40
2018-03-14T22:33:50.885Z,3.40
2018-03-14T22:36:18.494Z,3.40
2018-03-14T22:38:46.812Z,3.30
2018-03-14T22:41:14.372Z,3.30
2018-03-14T22:43:41.971Z,3.40
2018-03-14T22:46:09.972Z,3.30
2018-03-14T22:48:37.531Z,3.30
2018-03-14T22:51:05.163Z,3.30
2018-03-14T22:53:32.719Z,3.30
2018-03-14T22:56:00.283Z,3.40
2018-03-14T22:58:28.637Z,3.30
2018-03-14T23:00:56.460Z,3.30
2018-03-14T23:03:24.123Z,3.30
2018-03-14T23:05:51.879Z,3.40
2018-03-14T23:08:19.683Z,3.40
2018-03-14T23:10:47.319Z,3.30
2018-03-14T23:13:15.226Z,3.30
2018-03-14T23:15:42.787Z,3.30
2018-03-14T23:18:10.703Z,3.30
2018-03-14T23:20:38.611Z,3.40
2018-03-14T23:23:06.190Z,3.40
2018-03-14T23:25:33.759Z,3.40
2018-03-14T23:28:02.214Z,3.40
2018-03-14T23:30:29.770Z,3.40
2018-03-14T23:32:57.478Z,3.40
2018-03-14T23:35:25.199Z,3.40
2018-03-14T23:37:52.866Z,3.30
2018-03-14T23:40:20.539Z,3.30
2018-03-14T23:42:48.903Z,3.40
2018-03-14T23:45:16.659Z,3.30
2018-03-14T23:47:44.337Z,3.30
2018-03-14T23:50:12.846Z,3.30
2018-03-14T23:52:40.621Z,3.30
2018-03-14T23:55:08.267Z,3.20
2018-03-14T23:57:36.157Z,3.20
